sensor_id;sensor_type;location;lat;lon;timestamp;P1;durP1;ratioP1;P2;durP2;ratioP2
26050;SDS011;13825;53.496;10.020;2023-07-29T00:00:48;2.40;;;2.20;;
26050;SDS011;13825;53.496;10.020;2023-07-29T00:03:16;5.27;;;2.63;;
26050;SDS011;13825;53.496;10.020;2023-07-29T00:05:43;4.13;;;2.77;;
26050;SDS011;13825;53.496;10.020;2023-07-29T00:08:10;3.10;;;2.80;;
26050;SDS011;13825;53.496;10.020;2023-07-29T00:10:37;2.47;;;2.00;;
26050;SDS011;13825;53.496;10.020;2023-07-29T00:13:04;4.13;;;2.03;;
26050;SDS011;13825;53.496;10.020;2023-07-29T00:15:31;4.07;;;2.60;;
26050;SDS011;13825;53.496;10.020;2023-07-29T00:17:58;3.03;;;2.30;;
26050;SDS011;13825;53.496;10.020;2023-07-29T00:20:26;2.73;;;2.53;;
26050;SDS011;13825;53.496;10.020;2023-07-29T00:22:53;2.97;;;2.33;;
26050;SDS011;13825;53.496;10.020;2023-07-29T00:25:20;3.47;;;2.60;;
26050;SDS011;13825;53.496;10.020;2023-07-29T00:27:48;3.43;;;2.30;;
26050;SDS011;13825;53.496;10.020;2023-07-29T00:30:15;3.93;;;2.40;;
26050;SDS011;13825;53.496;10.020;2023-07-29T00:32:41;5.73;;;2.67;;
26050;SDS011;13825;53.496;10.020;2023-07-29T00:35:08;3.93;;;2.83;;
26050;SDS011;13825;53.496;10.020;2023-07-29T00:37:37;4.03;;;2.97;;
26050;SDS011;13825;53.496;10.020;2023-07-29T00:40:06;5.47;;;2.93;;
26050;SDS011;13825;53.496;10.020;2023-07-29T00:42:40;2.50;;;2.30;;
26050;SDS011;13825;53.496;10.020;2023-07-29T00:45:08;3.70;;;2.90;;
26050;SDS011;13825;53.496;10.020;2023-07-29T00:47:35;5.60;;;3.17;;
26050;SDS011;13825;53.496;10.020;2023-07-29T00:50:02;3.63;;;2.90;;
26050;SDS011;13825;53.496;10.020;2023-07-29T00:52:30;7.63;;;3.60;;
26050;SDS011;13825;53.496;10.020;2023-07-29T00:54:58;4.77;;;3.13;;
26050;SDS011;13825;53.496;10.020;2023-07-29T00:57:25;3.80;;;3.10;;
26050;SDS011;13825;53.496;10.020;2023-07-29T00:59:53;6.17;;;3.53;;
26050;SDS011;13825;53.496;10.020;2023-07-29T01:02:20;5.60;;;3.90;;
26050;SDS011;13825;53.496;10.020;2023-07-29T01:04:51;4.10;;;3.43;;
26050;SDS011;13825;53.496;10.020;2023-07-29T01:07:20;3.77;;;3.37;;
26050;SDS011;13825;53.496;10.020;2023-07-29T01:09:55;5.30;;;3.80;;
26050;SDS011;13825;53.496;10.020;2023-07-29T01:12:34;6.80;;;3.87;;
26050;SDS011;13825;53.496;10.020;2023-07-29T01:15:08;7.07;;;4.40;;
26050;SDS011;13825;53.496;10.020;2023-07-29T01:17:39;4.93;;;3.93;;
26050;SDS011;13825;53.496;10.020;2023-07-29T01:20:09;4.27;;;3.50;;
26050;SDS011;13825;53.496;10.020;2023-07-29T01:22:39;5.20;;;4.10;;
26050;SDS011;13825;53.496;10.020;2023-07-29T01:25:09;8.17;;;4.03;;
26050;SDS011;13825;53.496;10.020;2023-07-29T01:27:35;6.20;;;4.37;;
26050;SDS011;13825;53.496;10.020;2023-07-29T01:30:03;5.00;;;4.43;;
26050;SDS011;13825;53.496;10.020;2023-07-29T01:32:32;5.43;;;4.07;;
26050;SDS011;13825;53.496;10.020;2023-07-29T01:35:08;5.40;;;4.40;;
26050;SDS011;13825;53.496;10.020;2023-07-29T01:37:41;4.63;;;4.23;;
26050;SDS011;13825;53.496;10.020;2023-07-29T01:40:11;4.93;;;4.43;;
26050;SDS011;13825;53.496;10.020;2023-07-29T01:42:39;5.73;;;5.13;;
26050;SDS011;13825;53.496;10.020;2023-07-29T01:45:06;5.20;;;4.40;;
26050;SDS011;13825;53.496;10.020;2023-07-29T01:47:33;5.50;;;4.57;;
26050;SDS011;13825;53.496;10.020;2023-07-29T01:50:00;6.50;;;4.53;;
26050;SDS011;13825;53.496;10.020;2023-07-29T01:52:40;11.20;;;5.60;;
26050;SDS011;13825;53.496;10.020;2023-07-29T02:01:12;7.33;;;5.37;;
26050;SDS011;13825;53.496;10.020;2023-07-29T06:45:22;15.77;;;11.53;;
26050;SDS011;13825;53.496;10.020;2023-07-29T06:48:36;16.03;;;11.30;;
26050;SDS011;13825;53.496;10.020;2023-07-29T06:52:02;17.27;;;11.63;;
26050;SDS011;13825;53.496;10.020;2023-07-29T06:58:36;17.30;;;11.50;;
26050;SDS011;13825;53.496;10.020;2023-07-29T07:01:28;17.80;;;12.57;;
26050;SDS011;13825;53.496;10.020;2023-07-29T07:05:03;16.10;;;11.67;;
26050;SDS011;13825;53.496;10.020;2023-07-29T07:07:49;14.83;;;11.00;;
26050;SDS011;13825;53.496;10.020;2023-07-29T07:10:33;15.70;;;11.43;;
26050;SDS011;13825;53.496;10.020;2023-07-29T07:24:08;13.73;;;9.73;;
26050;SDS011;13825;53.496;10.020;2023-07-29T07:37:36;10.57;;;8.60;;
26050;SDS011;13825;53.496;10.020;2023-07-29T07:40:26;12.00;;;8.60;;
26050;SDS011;13825;53.496;10.020;2023-07-29T07:42:54;11.13;;;7.90;;
26050;SDS011;13825;53.496;10.020;2023-07-29T07:45:22;11.67;;;7.97;;
26050;SDS011;13825;53.496;10.020;2023-07-29T07:47:51;11.53;;;8.00;;
26050;SDS011;13825;53.496;10.020;2023-07-29T07:55:53;8.97;;;7.17;;
26050;SDS011;13825;53.496;10.020;2023-07-29T07:58:20;10.93;;;8.40;;
26050;SDS011;13825;53.496;10.020;2023-07-29T08:00:47;8.17;;;6.90;;
26050;SDS011;13825;53.496;10.020;2023-07-29T08:03:14;8.27;;;7.13;;
26050;SDS011;13825;53.496;10.020;2023-07-29T08:05:41;9.07;;;7.00;;
26050;SDS011;13825;53.496;10.020;2023-07-29T08:08:08;9.27;;;7.97;;
26050;SDS011;13825;53.496;10.020;2023-07-29T08:10:37;8.07;;;6.80;;
26050;SDS011;13825;53.496;10.020;2023-07-29T08:13:06;9.57;;;7.40;;
26050;SDS011;13825;53.496;10.020;2023-07-29T08:15:33;9.97;;;7.10;;
26050;SDS011;13825;53.496;10.020;2023-07-29T08:18:00;8.40;;;7.33;;
26050;SDS011;13825;53.496;10.020;2023-07-29T08:20:27;8.77;;;6.47;;
26050;SDS011;13825;53.496;10.020;2023-07-29T08:22:54;9.13;;;7.00;;
26050;SDS011;13825;53.496;10.020;2023-07-29T08:25:21;8.40;;;6.67;;
26050;SDS011;13825;53.496;10.020;2023-07-29T08:27:49;7.13;;;6.40;;
26050;SDS011;13825;53.496;10.020;2023-07-29T08:30:16;8.80;;;6.70;;
26050;SDS011;13825;53.496;10.020;2023-07-29T08:32:44;8.57;;;6.97;;
26050;SDS011;13825;53.496;10.020;2023-07-29T08:35:10;8.13;;;6.90;;
26050;SDS011;13825;53.496;10.020;2023-07-29T08:37:37;7.63;;;6.30;;
26050;SDS011;13825;53.496;10.020;2023-07-29T08:40:04;8.50;;;6.70;;
26050;SDS011;13825;53.496;10.020;2023-07-29T08:42:32;8.80;;;6.87;;
26050;SDS011;13825;53.496;10.020;2023-07-29T08:45:05;8.67;;;6.93;;
26050;SDS011;13825;53.496;10.020;2023-07-29T08:47:33;7.87;;;6.27;;
26050;SDS011;13825;53.496;10.020;2023-07-29T08:50:00;8.13;;;6.63;;
26050;SDS011;13825;53.496;10.020;2023-07-29T08:52:29;8.10;;;7.07;;
26050;SDS011;13825;53.496;10.020;2023-07-29T08:54:57;8.03;;;6.67;;
26050;SDS011;13825;53.496;10.020;2023-07-29T08:57:24;8.63;;;6.17;;
26050;SDS011;13825;53.496;10.020;2023-07-29T08:59:51;8.20;;;6.60;;
26050;SDS011;13825;53.496;10.020;2023-07-29T09:02:20;9.10;;;6.57;;
26050;SDS011;13825;53.496;10.020;2023-07-29T09:04:47;7.33;;;6.40;;
26050;SDS011;13825;53.496;10.020;2023-07-29T09:07:13;8.07;;;6.63;;
26050;SDS011;13825;53.496;10.020;2023-07-29T09:09:41;14.17;;;8.20;;
26050;SDS011;13825;53.496;10.020;2023-07-29T09:12:08;9.37;;;6.57;;
26050;SDS011;13825;53.496;10.020;2023-07-29T09:14:36;8.13;;;6.83;;
26050;SDS011;13825;53.496;10.020;2023-07-29T09:17:06;9.33;;;7.13;;
26050;SDS011;13825;53.496;10.020;2023-07-29T09:19:34;7.90;;;6.93;;
26050;SDS011;13825;53.496;10.020;2023-07-29T09:22:01;7.80;;;6.80;;
26050;SDS011;13825;53.496;10.020;2023-07-29T09:24:29;7.10;;;6.30;;
26050;SDS011;13825;53.496;10.020;2023-07-29T09:26:57;9.90;;;7.80;;
26050;SDS011;13825;53.496;10.020;2023-07-29T09:29:24;8.83;;;6.93;;
26050;SDS011;13825;53.496;10.020;2023-07-29T09:31:56;9.67;;;7.53;;
26050;SDS011;13825;53.496;10.020;2023-07-29T09:34:46;8.80;;;6.63;;
26050;SDS011;13825;53.496;10.020;2023-07-29T09:37:16;8.03;;;6.33;;
26050;SDS011;13825;53.496;10.020;2023-07-29T09:39:46;9.60;;;6.70;;
26050;SDS011;13825;53.496;10.020;2023-07-29T09:42:17;9.93;;;7.07;;
26050;SDS011;13825;53.496;10.020;2023-07-29T09:44:45;7.63;;;5.90;;
26050;SDS011;13825;53.496;10.020;2023-07-29T09:47:20;8.33;;;6.43;;
26050;SDS011;13825;53.496;10.020;2023-07-29T09:49:48;6.73;;;5.73;;
26050;SDS011;13825;53.496;10.020;2023-07-29T09:52:15;6.40;;;5.07;;
26050;SDS011;13825;53.496;10.020;2023-07-29T09:54:43;6.43;;;5.57;;
26050;SDS011;13825;53.496;10.020;2023-07-29T09:57:11;6.70;;;5.60;;
26050;SDS011;13825;53.496;10.020;2023-07-29T09:59:39;8.37;;;5.93;;
26050;SDS011;13825;53.496;10.020;2023-07-29T10:02:07;5.97;;;5.03;;
26050;SDS011;13825;53.496;10.020;2023-07-29T10:04:44;5.33;;;4.50;;
26050;SDS011;13825;53.496;10.020;2023-07-29T10:07:15;5.37;;;4.30;;
26050;SDS011;13825;53.496;10.020;2023-07-29T10:10:06;4.50;;;4.10;;
26050;SDS011;13825;53.496;10.020;2023-07-29T10:12:35;4.00;;;3.60;;
26050;SDS011;13825;53.496;10.020;2023-07-29T10:15:02;4.30;;;3.00;;
26050;SDS011;13825;53.496;10.020;2023-07-29T10:17:34;3.10;;;2.80;;
26050;SDS011;13825;53.496;10.020;2023-07-29T10:20:18;2.80;;;2.60;;
26050;SDS011;13825;53.496;10.020;2023-07-29T10:22:45;2.80;;;2.60;;
26050;SDS011;13825;53.496;10.020;2023-07-29T10:25:15;3.03;;;2.53;;
26050;SDS011;13825;53.496;10.020;2023-07-29T10:27:47;3.00;;;2.50;;
26050;SDS011;13825;53.496;10.020;2023-07-29T10:30:15;2.70;;;2.50;;
26050;SDS011;13825;53.496;10.020;2023-07-29T10:32:42;3.13;;;2.33;;
26050;SDS011;13825;53.496;10.020;2023-07-29T10:35:11;2.80;;;2.60;;
26050;SDS011;13825;53.496;10.020;2023-07-29T10:37:40;2.33;;;2.13;;
26050;SDS011;13825;53.496;10.020;2023-07-29T10:40:08;6.00;;;2.40;;
26050;SDS011;13825;53.496;10.020;2023-07-29T10:42:37;3.67;;;2.30;;
26050;SDS011;13825;53.496;10.020;2023-07-29T10:45:17;2.47;;;2.20;;
26050;SDS011;13825;53.496;10.020;2023-07-29T10:47:45;3.13;;;1.97;;
26050;SDS011;13825;53.496;10.020;2023-07-29T10:50:17;2.33;;;2.13;;
26050;SDS011;13825;53.496;10.020;2023-07-29T10:52:52;3.53;;;2.23;;
26050;SDS011;13825;53.496;10.020;2023-07-29T10:55:23;2.27;;;2.07;;
26050;SDS011;13825;53.496;10.020;2023-07-29T10:57:52;2.47;;;2.10;;
26050;SDS011;13825;53.496;10.020;2023-07-29T11:00:30;2.20;;;2.00;;
26050;SDS011;13825;53.496;10.020;2023-07-29T11:02:58;2.03;;;1.90;;
26050;SDS011;13825;53.496;10.020;2023-07-29T11:05:26;2.53;;;1.77;;
26050;SDS011;13825;53.496;10.020;2023-07-29T11:08:17;3.27;;;1.67;;
26050;SDS011;13825;53.496;10.020;2023-07-29T11:10:49;2.90;;;2.10;;
26050;SDS011;13825;53.496;10.020;2023-07-29T11:13:34;2.50;;;2.30;;
26050;SDS011;13825;53.496;10.020;2023-07-29T11:16:02;3.53;;;2.10;;
26050;SDS011;13825;53.496;10.020;2023-07-29T11:18:30;2.87;;;2.10;;
26050;SDS011;13825;53.496;10.020;2023-07-29T11:20:59;2.27;;;2.07;;
26050;SDS011;13825;53.496;10.020;2023-07-29T11:23:31;2.53;;;2.33;;
26050;SDS011;13825;53.496;10.020;2023-07-29T11:26:00;2.53;;;2.33;;
26050;SDS011;13825;53.496;10.020;2023-07-29T11:28:27;3.20;;;2.67;;
26050;SDS011;13825;53.496;10.020;2023-07-29T11:30:55;2.67;;;2.47;;
26050;SDS011;13825;53.496;10.020;2023-07-29T11:33:24;3.23;;;2.07;;
26050;SDS011;13825;53.496;10.020;2023-07-29T11:35:53;4.13;;;2.40;;
26050;SDS011;13825;53.496;10.020;2023-07-29T11:38:20;4.87;;;2.87;;
26050;SDS011;13825;53.496;10.020;2023-07-29T11:40:57;3.33;;;2.90;;
26050;SDS011;13825;53.496;10.020;2023-07-29T11:43:26;4.57;;;3.27;;
26050;SDS011;13825;53.496;10.020;2023-07-29T11:45:53;3.73;;;3.27;;
26050;SDS011;13825;53.496;10.020;2023-07-29T11:48:26;4.17;;;3.60;;
26050;SDS011;13825;53.496;10.020;2023-07-29T11:50:53;3.63;;;3.27;;
26050;SDS011;13825;53.496;10.020;2023-07-29T11:53:21;6.23;;;3.83;;
26050;SDS011;13825;53.496;10.020;2023-07-29T11:55:49;3.93;;;3.53;;
26050;SDS011;13825;53.496;10.020;2023-07-29T11:58:19;4.50;;;3.67;;
26050;SDS011;13825;53.496;10.020;2023-07-29T12:00:47;4.00;;;3.60;;
26050;SDS011;13825;53.496;10.020;2023-07-29T12:03:15;5.20;;;3.70;;
26050;SDS011;13825;53.496;10.020;2023-07-29T12:05:43;3.77;;;3.47;;
26050;SDS011;13825;53.496;10.020;2023-07-29T12:08:10;6.33;;;3.40;;
26050;SDS011;13825;53.496;10.020;2023-07-29T12:10:37;4.33;;;3.20;;
26050;SDS011;13825;53.496;10.020;2023-07-29T12:13:07;3.03;;;2.73;;
26050;SDS011;13825;53.496;10.020;2023-07-29T12:15:37;5.07;;;3.07;;
26050;SDS011;13825;53.496;10.020;2023-07-29T12:18:06;4.43;;;2.93;;
26050;SDS011;13825;53.496;10.020;2023-07-29T12:20:34;2.97;;;2.67;;
26050;SDS011;13825;53.496;10.020;2023-07-29T12:23:01;2.60;;;2.40;;
26050;SDS011;13825;53.496;10.020;2023-07-29T12:25:33;2.43;;;2.20;;
26050;SDS011;13825;53.496;10.020;2023-07-29T12:28:03;2.67;;;2.47;;
26050;SDS011;13825;53.496;10.020;2023-07-29T12:30:32;2.30;;;2.10;;
26050;SDS011;13825;53.496;10.020;2023-07-29T12:33:00;3.17;;;2.27;;
26050;SDS011;13825;53.496;10.020;2023-07-29T12:35:36;2.70;;;2.50;;
26050;SDS011;13825;53.496;10.020;2023-07-29T12:38:03;3.10;;;2.40;;
26050;SDS011;13825;53.496;10.020;2023-07-29T12:40:30;2.17;;;1.83;;
26050;SDS011;13825;53.496;10.020;2023-07-29T12:42:57;2.00;;;1.80;;
26050;SDS011;13825;53.496;10.020;2023-07-29T12:45:26;2.73;;;2.10;;
26050;SDS011;13825;53.496;10.020;2023-07-29T12:47:53;2.40;;;2.20;;
26050;SDS011;13825;53.496;10.020;2023-07-29T12:50:22;2.70;;;2.10;;
26050;SDS011;13825;53.496;10.020;2023-07-29T12:52:49;2.20;;;1.90;;
26050;SDS011;13825;53.496;10.020;2023-07-29T12:55:15;1.83;;;1.73;;
26050;SDS011;13825;53.496;10.020;2023-07-29T12:57:42;2.10;;;1.90;;
26050;SDS011;13825;53.496;10.020;2023-07-29T13:00:10;2.87;;;1.90;;
26050;SDS011;13825;53.496;10.020;2023-07-29T13:02:38;1.90;;;1.70;;
26050;SDS011;13825;53.496;10.020;2023-07-29T13:05:05;2.07;;;1.87;;
26050;SDS011;13825;53.496;10.020;2023-07-29T13:07:37;2.90;;;2.17;;
26050;SDS011;13825;53.496;10.020;2023-07-29T13:10:04;2.43;;;2.23;;
26050;SDS011;13825;53.496;10.020;2023-07-29T13:12:32;3.30;;;2.20;;
26050;SDS011;13825;53.496;10.020;2023-07-29T13:14:59;3.50;;;2.17;;
26050;SDS011;13825;53.496;10.020;2023-07-29T13:17:29;2.20;;;2.00;;
26050;SDS011;13825;53.496;10.020;2023-07-29T13:19:56;2.77;;;2.03;;
26050;SDS011;13825;53.496;10.020;2023-07-29T13:22:29;2.50;;;2.30;;
26050;SDS011;13825;53.496;10.020;2023-07-29T13:24:57;2.10;;;1.90;;
26050;SDS011;13825;53.496;10.020;2023-07-29T13:27:24;2.60;;;2.10;;
26050;SDS011;13825;53.496;10.020;2023-07-29T13:29:51;1.90;;;1.80;;
26050;SDS011;13825;53.496;10.020;2023-07-29T13:32:18;2.10;;;1.97;;
26050;SDS011;13825;53.496;10.020;2023-07-29T13:34:46;3.07;;;2.37;;
26050;SDS011;13825;53.496;10.020;2023-07-29T13:37:12;3.83;;;2.33;;
26050;SDS011;13825;53.496;10.020;2023-07-29T13:39:40;2.30;;;2.10;;
26050;SDS011;13825;53.496;10.020;2023-07-29T13:42:08;2.37;;;2.17;;
26050;SDS011;13825;53.496;10.020;2023-07-29T13:44:36;2.23;;;2.03;;
26050;SDS011;13825;53.496;10.020;2023-07-29T13:47:03;3.27;;;2.00;;
26050;SDS011;13825;53.496;10.020;2023-07-29T13:49:31;2.43;;;1.90;;
26050;SDS011;13825;53.496;10.020;2023-07-29T13:51:58;2.13;;;1.93;;
26050;SDS011;13825;53.496;10.020;2023-07-29T13:54:25;2.37;;;2.10;;
26050;SDS011;13825;53.496;10.020;2023-07-29T13:56:53;2.73;;;2.20;;
26050;SDS011;13825;53.496;10.020;2023-07-29T13:59:22;3.00;;;2.30;;
26050;SDS011;13825;53.496;10.020;2023-07-29T14:01:49;2.23;;;2.03;;
26050;SDS011;13825;53.496;10.020;2023-07-29T14:04:19;2.90;;;2.33;;
26050;SDS011;13825;53.496;10.020;2023-07-29T14:06:46;2.03;;;1.83;;
26050;SDS011;13825;53.496;10.020;2023-07-29T14:09:13;2.20;;;1.80;;
26050;SDS011;13825;53.496;10.020;2023-07-29T14:11:55;3.03;;;2.10;;
26050;SDS011;13825;53.496;10.020;2023-07-29T14:14:23;2.30;;;2.10;;
26050;SDS011;13825;53.496;10.020;2023-07-29T14:16:50;2.50;;;1.77;;
26050;SDS011;13825;53.496;10.020;2023-07-29T14:19:19;2.43;;;1.90;;
26050;SDS011;13825;53.496;10.020;2023-07-29T14:21:46;2.47;;;2.07;;
26050;SDS011;13825;53.496;10.020;2023-07-29T14:24:14;1.97;;;1.70;;
26050;SDS011;13825;53.496;10.020;2023-07-29T14:26:46;2.30;;;1.80;;
26050;SDS011;13825;53.496;10.020;2023-07-29T14:29:16;1.90;;;1.70;;
26050;SDS011;13825;53.496;10.020;2023-07-29T14:31:47;2.30;;;1.60;;
26050;SDS011;13825;53.496;10.020;2023-07-29T14:34:14;3.47;;;1.70;;
26050;SDS011;13825;53.496;10.020;2023-07-29T14:36:41;2.70;;;1.90;;
26050;SDS011;13825;53.496;10.020;2023-07-29T14:39:08;2.37;;;1.63;;
26050;SDS011;13825;53.496;10.020;2023-07-29T14:41:37;2.33;;;1.60;;
26050;SDS011;13825;53.496;10.020;2023-07-29T14:44:04;2.00;;;1.47;;
26050;SDS011;13825;53.496;10.020;2023-07-29T14:46:31;2.00;;;1.80;;
26050;SDS011;13825;53.496;10.020;2023-07-29T14:49:01;1.67;;;1.50;;
26050;SDS011;13825;53.496;10.020;2023-07-29T14:51:29;3.20;;;2.30;;
26050;SDS011;13825;53.496;10.020;2023-07-29T14:53:59;1.90;;;1.73;;
26050;SDS011;13825;53.496;10.020;2023-07-29T14:56:29;3.73;;;1.83;;
26050;SDS011;13825;53.496;10.020;2023-07-29T14:58:56;2.03;;;1.67;;
26050;SDS011;13825;53.496;10.020;2023-07-29T15:01:23;3.23;;;1.70;;
26050;SDS011;13825;53.496;10.020;2023-07-29T15:03:50;1.77;;;1.67;;
26050;SDS011;13825;53.496;10.020;2023-07-29T15:06:19;2.53;;;1.73;;
26050;SDS011;13825;53.496;10.020;2023-07-29T15:08:49;2.93;;;1.67;;
26050;SDS011;13825;53.496;10.020;2023-07-29T15:11:16;1.80;;;1.70;;
26050;SDS011;13825;53.496;10.020;2023-07-29T15:13:43;2.13;;;1.80;;
26050;SDS011;13825;53.496;10.020;2023-07-29T15:16:10;4.20;;;1.77;;
26050;SDS011;13825;53.496;10.020;2023-07-29T15:18:37;2.80;;;1.80;;
26050;SDS011;13825;53.496;10.020;2023-07-29T15:21:04;3.20;;;1.80;;
26050;SDS011;13825;53.496;10.020;2023-07-29T15:23:33;2.07;;;1.67;;
26050;SDS011;13825;53.496;10.020;2023-07-29T15:26:00;2.10;;;1.63;;
26050;SDS011;13825;53.496;10.020;2023-07-29T15:28:27;1.97;;;1.70;;
26050;SDS011;13825;53.496;10.020;2023-07-29T15:30:57;3.37;;;1.80;;
26050;SDS011;13825;53.496;10.020;2023-07-29T15:33:24;2.13;;;1.70;;
26050;SDS011;13825;53.496;10.020;2023-07-29T15:35:54;7.20;;;2.20;;
26050;SDS011;13825;53.496;10.020;2023-07-29T15:38:21;2.53;;;1.93;;
26050;SDS011;13825;53.496;10.020;2023-07-29T15:40:52;1.93;;;1.80;;
26050;SDS011;13825;53.496;10.020;2023-07-29T15:43:30;2.03;;;1.83;;
26050;SDS011;13825;53.496;10.020;2023-07-29T15:45:57;1.80;;;1.63;;
26050;SDS011;13825;53.496;10.020;2023-07-29T15:48:24;3.50;;;2.07;;
26050;SDS011;13825;53.496;10.020;2023-07-29T15:50:51;2.50;;;2.20;;
26050;SDS011;13825;53.496;10.020;2023-07-29T15:53:18;2.57;;;2.00;;
26050;SDS011;13825;53.496;10.020;2023-07-29T15:55:44;3.17;;;2.47;;
26050;SDS011;13825;53.496;10.020;2023-07-29T15:58:13;2.70;;;2.37;;
26050;SDS011;13825;53.496;10.020;2023-07-29T16:00:40;2.20;;;2.00;;
26050;SDS011;13825;53.496;10.020;2023-07-29T16:03:07;3.53;;;2.30;;
26050;SDS011;13825;53.496;10.020;2023-07-29T16:05:34;2.43;;;1.97;;
26050;SDS011;13825;53.496;10.020;2023-07-29T16:08:02;2.87;;;2.10;;
26050;SDS011;13825;53.496;10.020;2023-07-29T16:10:31;2.30;;;1.97;;
26050;SDS011;13825;53.496;10.020;2023-07-29T16:12:59;3.10;;;2.13;;
26050;SDS011;13825;53.496;10.020;2023-07-29T16:15:32;2.93;;;2.20;;
26050;SDS011;13825;53.496;10.020;2023-07-29T16:17:59;2.53;;;1.60;;
26050;SDS011;13825;53.496;10.020;2023-07-29T16:20:55;1.50;;;1.40;;
26050;SDS011;13825;53.496;10.020;2023-07-29T16:23:26;1.67;;;1.20;;
26050;SDS011;13825;53.496;10.020;2023-07-29T16:25:53;1.90;;;1.20;;
26050;SDS011;13825;53.496;10.020;2023-07-29T16:28:20;1.43;;;1.27;;
26050;SDS011;13825;53.496;10.020;2023-07-29T16:30:50;1.87;;;1.40;;
26050;SDS011;13825;53.496;10.020;2023-07-29T16:33:18;2.03;;;1.37;;
26050;SDS011;13825;53.496;10.020;2023-07-29T16:35:45;2.13;;;1.50;;
26050;SDS011;13825;53.496;10.020;2023-07-29T16:38:12;3.20;;;1.47;;
26050;SDS011;13825;53.496;10.020;2023-07-29T16:40:39;1.93;;;1.40;;
26050;SDS011;13825;53.496;10.020;2023-07-29T16:43:06;1.57;;;1.43;;
26050;SDS011;13825;53.496;10.020;2023-07-29T16:45:33;1.77;;;1.53;;
26050;SDS011;13825;53.496;10.020;2023-07-29T16:48:01;2.77;;;1.60;;
26050;SDS011;13825;53.496;10.020;2023-07-29T16:50:28;3.10;;;1.67;;
26050;SDS011;13825;53.496;10.020;2023-07-29T16:52:55;2.63;;;1.50;;
26050;SDS011;13825;53.496;10.020;2023-07-29T16:55:24;2.60;;;2.10;;
26050;SDS011;13825;53.496;10.020;2023-07-29T16:57:50;7.33;;;1.97;;
26050;SDS011;13825;53.496;10.020;2023-07-29T17:00:18;2.40;;;1.50;;
26050;SDS011;13825;53.496;10.020;2023-07-29T17:02:45;2.53;;;2.20;;
26050;SDS011;13825;53.496;10.020;2023-07-29T17:05:13;2.33;;;1.73;;
26050;SDS011;13825;53.496;10.020;2023-07-29T17:07:40;2.73;;;2.13;;
26050;SDS011;13825;53.496;10.020;2023-07-29T17:10:07;3.33;;;2.20;;
26050;SDS011;13825;53.496;10.020;2023-07-29T17:12:34;2.97;;;2.00;;
26050;SDS011;13825;53.496;10.020;2023-07-29T17:15:01;5.63;;;1.90;;
26050;SDS011;13825;53.496;10.020;2023-07-29T17:17:28;2.43;;;1.73;;
26050;SDS011;13825;53.496;10.020;2023-07-29T17:19:55;2.43;;;1.60;;
26050;SDS011;13825;53.496;10.020;2023-07-29T17:22:24;3.17;;;1.70;;
26050;SDS011;13825;53.496;10.020;2023-07-29T17:24:51;3.00;;;1.90;;
26050;SDS011;13825;53.496;10.020;2023-07-29T17:27:18;3.40;;;1.80;;
26050;SDS011;13825;53.496;10.020;2023-07-29T17:29:45;2.73;;;1.90;;
26050;SDS011;13825;53.496;10.020;2023-07-29T17:32:12;1.63;;;1.40;;
26050;SDS011;13825;53.496;10.020;2023-07-29T17:34:39;1.87;;;1.50;;
26050;SDS011;13825;53.496;10.020;2023-07-29T17:37:06;2.17;;;1.50;;
26050;SDS011;13825;53.496;10.020;2023-07-29T17:39:36;2.20;;;1.30;;
26050;SDS011;13825;53.496;10.020;2023-07-29T17:42:06;2.37;;;1.47;;
26050;SDS011;13825;53.496;10.020;2023-07-29T17:44:34;3.23;;;2.10;;
26050;SDS011;13825;53.496;10.020;2023-07-29T17:47:01;2.40;;;1.80;;
26050;SDS011;13825;53.496;10.020;2023-07-29T17:49:28;3.13;;;2.00;;
26050;SDS011;13825;53.496;10.020;2023-07-29T17:51:55;2.17;;;1.87;;
26050;SDS011;13825;53.496;10.020;2023-07-29T17:54:22;1.83;;;1.70;;
26050;SDS011;13825;53.496;10.020;2023-07-29T17:56:50;2.00;;;1.80;;
26050;SDS011;13825;53.496;10.020;2023-07-29T17:59:17;2.50;;;1.60;;
26050;SDS011;13825;53.496;10.020;2023-07-29T18:01:44;3.00;;;1.90;;
26050;SDS011;13825;53.496;10.020;2023-07-29T18:04:14;3.13;;;2.10;;
26050;SDS011;13825;53.496;10.020;2023-07-29T18:06:41;2.60;;;1.90;;
26050;SDS011;13825;53.496;10.020;2023-07-29T18:09:08;2.10;;;1.77;;
26050;SDS011;13825;53.496;10.020;2023-07-29T18:11:35;1.80;;;1.70;;
26050;SDS011;13825;53.496;10.020;2023-07-29T18:14:07;2.03;;;1.83;;
26050;SDS011;13825;53.496;10.020;2023-07-29T18:16:34;2.93;;;1.93;;
26050;SDS011;13825;53.496;10.020;2023-07-29T18:19:03;3.00;;;2.70;;
26050;SDS011;13825;53.496;10.020;2023-07-29T18:21:29;3.43;;;1.93;;
26050;SDS011;13825;53.496;10.020;2023-07-29T18:23:57;2.27;;;1.90;;
26050;SDS011;13825;53.496;10.020;2023-07-29T18:26:34;3.47;;;2.20;;
26050;SDS011;13825;53.496;10.020;2023-07-29T18:29:28;2.77;;;2.20;;
26050;SDS011;13825;53.496;10.020;2023-07-29T18:32:15;2.27;;;2.00;;
26050;SDS011;13825;53.496;10.020;2023-07-29T18:36:03;2.60;;;2.27;;
26050;SDS011;13825;53.496;10.020;2023-07-29T18:41:18;5.00;;;2.80;;
26050;SDS011;13825;53.496;10.020;2023-07-29T18:44:14;4.17;;;2.87;;
26050;SDS011;13825;53.496;10.020;2023-07-29T18:50:54;4.37;;;2.80;;
26050;SDS011;13825;53.496;10.020;2023-07-29T18:54:00;3.30;;;2.33;;
26050;SDS011;13825;53.496;10.020;2023-07-29T19:00:53;3.50;;;2.60;;
26050;SDS011;13825;53.496;10.020;2023-07-29T19:04:14;3.50;;;2.30;;
26050;SDS011;13825;53.496;10.020;2023-07-29T19:09:01;4.03;;;2.63;;
26050;SDS011;13825;53.496;10.020;2023-07-29T19:10:47;4.20;;;2.50;;
26050;SDS011;13825;53.496;10.020;2023-07-29T19:47:17;4.63;;;3.40;;
26050;SDS011;13825;53.496;10.020;2023-07-29T19:50:00;3.33;;;2.90;;
26050;SDS011;13825;53.496;10.020;2023-07-29T19:53:22;5.10;;;3.37;;
26050;SDS011;13825;53.496;10.020;2023-07-29T19:56:23;4.17;;;3.43;;
26050;SDS011;13825;53.496;10.020;2023-07-29T19:58:50;3.53;;;2.80;;
26050;SDS011;13825;53.496;10.020;2023-07-29T20:01:18;3.93;;;2.43;;
26050;SDS011;13825;53.496;10.020;2023-07-29T20:03:45;3.20;;;2.67;;
26050;SDS011;13825;53.496;10.020;2023-07-29T20:06:12;3.37;;;2.70;;
26050;SDS011;13825;53.496;10.020;2023-07-29T20:08:42;3.50;;;2.63;;
26050;SDS011;13825;53.496;10.020;2023-07-29T20:25:46;3.57;;;2.70;;
26050;SDS011;13825;53.496;10.020;2023-07-29T20:29:13;5.63;;;3.40;;
26050;SDS011;13825;53.496;10.020;2023-07-29T20:35:43;4.07;;;3.37;;
26050;SDS011;13825;53.496;10.020;2023-07-29T20:38:46;4.67;;;3.40;;
26050;SDS011;13825;53.496;10.020;2023-07-29T21:06:52;5.43;;;3.53;;
26050;SDS011;13825;53.496;10.020;2023-07-29T21:09:19;4.60;;;3.90;;
26050;SDS011;13825;53.496;10.020;2023-07-29T21:11:46;4.07;;;3.53;;
26050;SDS011;13825;53.496;10.020;2023-07-29T21:14:13;6.53;;;3.57;;
26050;SDS011;13825;53.496;10.020;2023-07-29T21:16:39;5.07;;;3.43;;
26050;SDS011;13825;53.496;10.020;2023-07-29T21:19:06;3.80;;;2.90;;
26050;SDS011;13825;53.496;10.020;2023-07-29T21:41:46;5.10;;;3.63;;
26050;SDS011;13825;53.496;10.020;2023-07-29T21:50:31;4.20;;;3.17;;
26050;SDS011;13825;53.496;10.020;2023-07-29T21:53:28;3.33;;;3.00;;
26050;SDS011;13825;53.496;10.020;2023-07-29T21:56:39;4.43;;;3.67;;
26050;SDS011;13825;53.496;10.020;2023-07-29T22:05:17;3.33;;;3.03;;
26050;SDS011;13825;53.496;10.020;2023-07-29T22:06:20;2.73;;;2.43;;
26050;SDS011;13825;53.496;10.020;2023-07-29T22:16:24;3.80;;;3.10;;
26050;SDS011;13825;53.496;10.020;2023-07-29T22:19:17;6.47;;;3.80;;
26050;SDS011;13825;53.496;10.020;2023-07-29T22:22:14;3.97;;;2.87;;
26050;SDS011;13825;53.496;10.020;2023-07-29T22:25:19;6.50;;;3.43;;